Pagrindinis puslapis
METAR-TAF:

METAR-TAF

Oro uostai :

Koyuk, Aliaska, Jungtinės Amerikos Valstijos

platuma: 64-56-02N, ilguma: 161-09-29W, Aukštis: 37 m

Dabartinis oras

Ataskaita buvo paskelbta 13 minutes, ne 18:56 UTC
Vėjas 6 kt iš Šiaurės
Temperatūra -17°C
Drėgmė 71%
Slėgis 1009 hPa
Matomumas: 14.5 km
Išsisklaidę debesys ne aukštis 4200 ft
Apsiniaukę ne aukštis 6000 ft
sniegas

METAR: PAKK 161856Z AUTO 01006KT 9SM -SN SCT042 OVC060 M17/M21 A2979 RMK AO2 SNB15 SLP100 P0000 T11721211 FZRANO

Laikas: 10:09 (19:09 UTC)


TAF: trūkstamas

Orai ataskaitas ir orų prognozės (METAR, TAF).

turimą stotys yra geltonos ir raudonos taškus žemėlapyje.

Perkelti pele per norėdami pamatyti stoties vardą.

Tada spustelėkite, norėdami matyti oro stebėjimo ir prognozės.

Norėdami pakeisti žemėlapį: spustelėkite ant žalios mygtukų su juodo kryžiaus žemyn,; žalią mygtuką su brūkšneliu, jei norite nutolinti; arba žalių rodyklių gretimoms žemėlapius.


METAR-TAF: